Time;durP1;ratioP1;P1;durP2;ratioP2;P2;SDS_P1;SDS_P2;PMS_P1;PMS_P2;Temp;Humidity;BMP_temperature;BMP_pressure;BME280_temperature;BME280_humidity;BME280_pressure;Samples;Min_cycle;Max_cycle;Signal;HPM_P1;HPM_P2
2023/03/27 00:02:22;;;;;;;;;;;;;;;4.73;66.41;99843.10;107721;1257;125939;-81
2023/03/27 00:04:49;;;;;;;;;;;;;;;4.68;66.26;99838.96;107880;1258;66840;-83
2023/03/27 00:07:18;;;;;;;;;;;;;;;4.58;65.76;99838.26;107678;1257;72476;-82
2023/03/27 00:09:45;;;;;;;;;;;;;;;4.46;65.57;99843.41;107492;1256;125279;-83
2023/03/27 00:12:13;;;;;;;;;;;;;;;4.35;65.20;99845.13;107619;1256;60189;-82
2023/03/27 00:14:41;;;;;;;;;;;;;;;4.29;65.12;99841.77;107445;1256;124189;-82
2023/03/27 00:17:09;;;;;;;;;;;;;;;4.25;65.04;99841.27;107480;1260;65635;-82
2023/03/27 00:19:38;;;;;;;;;;;;;;;4.18;64.68;99843.61;107510;1257;72693;-82
2023/03/27 00:22:05;;;;;;;;;;;;;;;4.09;64.66;99840.90;107474;1257;124056;-83
2023/03/27 00:24:33;;;;;;;;;;;;;;;3.99;64.43;99837.03;107617;1256;60324;-82
2023/03/27 00:27:05;;;;;;;;;;;;;;;3.86;64.33;99834.16;107136;1262;124887;-83
2023/03/27 00:29:33;;;;;;;;;;;;;;;3.70;64.26;99831.64;107476;1259;65485;-80
2023/03/27 00:32:00;;;;;;;;;;;;;;;3.54;64.56;99828.45;107648;1260;71366;-80
2023/03/27 00:34:29;;;;;;;;;;;;;;;3.40;64.73;99827.91;107645;1259;124506;-80
2023/03/27 00:36:56;;;;;;;;;;;;;;;3.28;64.73;99824.30;107803;1259;61761;-80
2023/03/27 00:39:23;;;;;;;;;;;;;;;3.17;64.84;99822.98;107951;1261;124600;-80
2023/03/27 00:41:50;;;;;;;;;;;;;;;3.06;64.97;99826.58;108032;1257;65445;-80
2023/03/27 00:44:24;;;;;;;;;;;;;;;2.96;65.19;99821.46;107558;1260;124749;-79
2023/03/27 00:46:53;;;;;;;;;;;;;;;2.88;65.36;99821.84;107705;1256;60247;-79
2023/03/27 00:49:20;;;;;;;;;;;;;;;2.79;65.49;99818.50;107818;1256;61868;-80
2023/03/27 00:51:48;;;;;;;;;;;;;;;2.71;65.59;99818.20;107569;1257;124578;-80
2023/03/27 00:54:15;;;;;;;;;;;;;;;2.62;65.73;99813.34;107769;1262;67221;-82
2023/03/27 00:56:43;;;;;;;;;;;;;;;2.55;66.08;99810.09;108807;1257;124832;-82
2023/03/27 00:59:11;;;;;;;;;;;;;;;2.47;66.17;99809.09;107629;1257;62053;-82
2023/03/27 01:01:38;;;;;;;;;;;;;;;2.40;66.37;99809.10;107913;1258;60243;-79
2023/03/27 01:04:05;;;;;;;;;;;;;;;2.33;66.48;99812.28;107686;1256;124951;-80
2023/03/27 01:06:32;;;;;;;;;;;;;;;2.27;66.86;99809.95;107912;1260;65808;-79
2023/03/27 01:09:00;;;;;;;;;;;;;;;2.21;66.91;99807.62;108124;1255;124871;-79
2023/03/27 01:11:34;;;;;;;;;;;;;;;2.16;67.17;99807.05;108264;1256;60723;-80
2023/03/27 01:14:11;;;;;;;;;;;;;;;2.09;67.19;99802.27;107885;1257;60458;-81
2023/03/27 01:16:41;;;;;;;;;;;;;;;2.03;67.48;99809.79;107755;1260;124478;-82
2023/03/27 01:19:26;;;;;;;;;;;;;;;1.97;67.66;99809.34;107743;1256;65690;-82
2023/03/27 01:21:54;;;;;;;;;;;;;;;1.91;67.80;99812.70;107537;1257;124601;-82
2023/03/27 01:24:40;;;;;;;;;;;;;;;1.86;67.94;99816.27;108015;1256;61692;-82
2023/03/27 01:27:09;;;;;;;;;;;;;;;1.80;68.14;99822.27;108002;1256;124405;-80
2023/03/27 01:29:56;;;;;;;;;;;;;;;1.76;68.37;99827.08;107937;1260;75730;-80
2023/03/27 01:32:46;;;;;;;;;;;;;;;1.70;68.28;99830.63;107642;1262;124535;-79
2023/03/27 01:35:24;;;;;;;;;;;;;;;1.65;68.49;99835.23;108664;1260;73259;-79
2023/03/27 01:38:14;;;;;;;;;;;;;;;1.60;68.69;99837.61;108851;1257;60366;-80
2023/03/27 01:40:45;;;;;;;;;;;;;;;1.56;69.13;99832.92;108873;1257;60254;-79
2023/03/27 01:43:20;;;;;;;;;;;;;;;1.53;69.20;99833.52;108819;1260;75480;-81
2023/03/27 01:45:50;;;;;;;;;;;;;;;1.53;69.42;99827.44;107832;1260;125286;-81
2023/03/27 01:48:19;;;;;;;;;;;;;;;1.54;69.55;99828.01;107738;1257;72714;-81
2023/03/27 01:50:46;;;;;;;;;;;;;;;1.55;69.61;99828.05;107715;1259;126254;-81
2023/03/27 01:53:14;;;;;;;;;;;;;;;1.57;69.44;99831.92;108120;1259;60396;-82
2023/03/27 01:55:43;;;;;;;;;;;;;;;1.58;69.51;99831.27;108209;1261;75979;-82
2023/03/27 01:58:12;;;;;;;;;;;;;;;1.60;69.61;99835.16;108639;1260;125957;-81
2023/03/27 02:00:41;;;;;;;;;;;;;;;1.62;69.74;99835.27;108887;1257;72727;-80
2023/03/27 02:03:15;;;;;;;;;;;;;;;1.63;69.62;99834.64;108764;1257;125536;-80
2023/03/27 02:05:47;;;;;;;;;;;;;;;1.65;69.64;99837.48;108835;1260;59909;-81
2023/03/27 02:08:37;;;;;;;;;;;;;;;1.65;69.65;99841.48;108876;1258;75763;-80
2023/03/27 02:11:07;;;;;;;;;;;;;;;1.66;69.68;99847.23;108758;1260;65878;-80
2023/03/27 02:13:46;;;;;;;;;;;;;;;1.68;69.83;99848.70;107855;1260;71100;-80
2023/03/27 02:16:14;;;;;;;;;;;;;;;1.70;69.72;99849.48;108001;1256;125449;-80
2023/03/27 02:18:46;;;;;;;;;;;;;;;1.72;69.92;99846.98;108139;1255;60854;-80
2023/03/27 02:21:13;;;;;;;;;;;;;;;1.74;69.69;99849.69;107779;1259;125384;-79
2023/03/27 02:23:40;;;;;;;;;;;;;;;1.78;70.02;99851.58;107818;1257;65889;-78
2023/03/27 02:26:08;;;;;;;;;;;;;;;1.81;69.90;99848.56;108710;1257;73485;-79
2023/03/27 02:28:47;;;;;;;;;;;;;;;1.82;69.85;99848.65;107806;1257;124076;-80
2023/03/27 02:31:14;;;;;;;;;;;;;;;1.82;69.82;99852.28;108083;1258;60724;-80
2023/03/27 02:37:06;;;;;;;;;;;;;;;1.84;69.80;99860.47;107811;1258;67039;-80
2023/03/27 02:39:41;;;;;;;;;;;;;;;1.82;69.95;99863.34;107577;1257;124471;-80
2023/03/27 02:42:14;;;;;;;;;;;;;;;1.80;69.95;99873.77;107801;1262;60288;-80
2023/03/27 02:44:50;;;;;;;;;;;;;;;1.80;69.99;99882.10;107778;1256;124287;-80
2023/03/27 02:47:27;;;;;;;;;;;;;;;1.82;70.07;99889.63;108199;1255;74327;-80
2023/03/27 02:49:56;;;;;;;;;;;;;;;1.86;70.21;99894.14;107872;1257;65782;-80
2023/03/27 02:52:31;;;;;;;;;;;;;;;1.92;70.39;99895.27;107715;1257;124057;-80
2023/03/27 02:55:04;;;;;;;;;;;;;;;2.01;70.39;99895.49;107961;1257;60424;-81
2023/03/27 02:57:32;;;;;;;;;;;;;;;2.10;70.37;99896.30;107963;1260;124319;-81
2023/03/27 03:00:19;;;;;;;;;;;;;;;2.20;70.53;99900.36;108183;1261;73952;-80
2023/03/27 03:02:46;;;;;;;;;;;;;;;2.31;70.58;99901.02;108172;1257;124839;-80
2023/03/27 03:05:16;;;;;;;;;;;;;;;2.41;70.49;99903.53;108368;1261;71451;-79
2023/03/27 03:07:45;;;;;;;;;;;;;;;2.51;70.37;99910.02;107973;1257;62798;-80
2023/03/27 03:10:12;;;;;;;;;;;;;;;2.60;70.43;99914.57;107755;1260;124334;-80
2023/03/27 03:12:39;;;;;;;;;;;;;;;2.69;70.30;99920.15;107341;1259;76019;-82
2023/03/27 03:15:10;;;;;;;;;;;;;;;2.77;70.22;99928.48;107706;1257;124254;-82
2023/03/27 03:17:37;;;;;;;;;;;;;;;2.85;70.29;99932.98;107612;1254;71882;-81
2023/03/27 03:20:08;;;;;;;;;;;;;;;2.93;70.37;99939.19;107695;1257;62111;-82
2023/03/27 03:22:38;;;;;;;;;;;;;;;2.98;70.14;99938.20;107924;1257;124609;-81
2023/03/27 03:25:06;;;;;;;;;;;;;;;3.04;69.98;99941.55;107840;1256;75520;-81
2023/03/27 03:27:33;;;;;;;;;;;;;;;3.07;70.02;99944.32;107562;1257;124031;-81
2023/03/27 03:30:03;;;;;;;;;;;;;;;3.11;69.92;99949.98;107371;1257;72624;-82
2023/03/27 03:32:38;;;;;;;;;;;;;;;3.15;69.97;99950.67;107881;1257;125006;-81
2023/03/27 03:35:07;;;;;;;;;;;;;;;3.18;69.94;99949.09;108033;1256;60436;-81
2023/03/27 03:37:37;;;;;;;;;;;;;;;3.18;69.89;99951.36;107822;1258;76491;-82
2023/03/27 03:40:12;;;;;;;;;;;;;;;3.17;69.82;99955.26;107767;1257;124580;-82
2023/03/27 03:42:51;;;;;;;;;;;;;;;3.16;69.95;99956.63;108032;1259;72530;-82
2023/03/27 03:45:18;;;;;;;;;;;;;;;3.15;70.03;99964.38;107930;1257;124644;-82
2023/03/27 03:47:45;;;;;;;;;;;;;;;3.16;70.07;99966.33;108017;1257;61197;-80
2023/03/27 03:50:12;;;;;;;;;;;;;;;3.18;70.29;99966.93;107818;1255;74225;-80
2023/03/27 03:52:43;;;;;;;;;;;;;;;3.20;70.21;99967.02;107785;1257;124447;-81
2023/03/27 03:55:10;;;;;;;;;;;;;;;3.21;70.37;99966.19;107737;1257;71865;-80
2023/03/27 03:57:37;;;;;;;;;;;;;;;3.22;70.49;99973.16;107676;1256;123533;-78
2023/03/27 04:00:10;;;;;;;;;;;;;;;3.18;70.43;99975.61;107964;1254;61897;-79
2023/03/27 04:02:39;;;;;;;;;;;;;;;3.17;70.51;99986.80;107920;1260;124602;-77
2023/03/27 04:05:08;;;;;;;;;;;;;;;3.12;70.80;99980.70;108806;1254;65833;-82
2023/03/27 04:07:35;;;;;;;;;;;;;;;3.11;71.01;99982.08;107903;1254;72835;-82
2023/03/27 04:10:02;;;;;;;;;;;;;;;3.11;71.13;99979.83;107575;1254;124326;-80
2023/03/27 04:12:29;;;;;;;;;;;;;;;3.10;71.27;99986.56;108160;1253;60370;-82
2023/03/27 04:14:56;;;;;;;;;;;;;;;3.12;71.34;99989.05;107663;1260;124541;-78
2023/03/27 04:17:25;;;;;;;;;;;;;;;3.13;71.30;99992.89;107921;1254;67645;-77
2023/03/27 04:19:56;;;;;;;;;;;;;;;3.12;71.34;99994.92;108326;1254;71317;-78
2023/03/27 04:22:23;;;;;;;;;;;;;;;3.13;71.44;99994.29;107841;1260;125691;-79
2023/03/27 04:24:50;;;;;;;;;;;;;;;3.16;71.70;99996.14;107853;1254;61961;-78
2023/03/27 04:27:16;;;;;;;;;;;;;;;3.20;71.83;99997.20;107823;1254;125142;-77
2023/03/27 04:29:46;;;;;;;;;;;;;;;3.26;71.72;99989.15;108054;1260;67579;-80
2023/03/27 04:32:17;;;;;;;;;;;;;;;3.31;71.91;99991.92;107937;1254;72416;-77
2023/03/27 04:34:45;;;;;;;;;;;;;;;3.35;71.88;99988.25;107800;1253;124503;-79
2023/03/27 04:37:12;;;;;;;;;;;;;;;3.36;71.84;99991.97;107817;1254;61839;-80
2023/03/27 04:39:41;;;;;;;;;;;;;;;3.37;71.82;99994.61;107775;1257;124771;-78
2023/03/27 04:42:09;;;;;;;;;;;;;;;3.38;71.81;99992.40;109115;1254;67093;-76
2023/03/27 04:44:39;;;;;;;;;;;;;;;3.37;71.78;99988.52;108806;1254;125511;-78
2023/03/27 04:47:07;;;;;;;;;;;;;;;3.32;71.74;99985.38;108903;1254;60238;-77
2023/03/27 04:49:39;;;;;;;;;;;;;;;3.26;71.63;99985.83;108965;1254;60290;-78
2023/03/27 04:52:06;;;;;;;;;;;;;;;3.20;71.66;99987.83;108930;1254;125419;-80
2023/03/27 04:54:33;;;;;;;;;;;;;;;3.14;71.75;99987.23;107832;1254;65066;-80
2023/03/27 04:57:00;;;;;;;;;;;;;;;3.11;71.74;99989.86;107531;1254;126221;-78
2023/03/27 04:59:31;;;;;;;;;;;;;;;3.11;72.02;99991.09;107801;1252;60749;-77
2023/03/27 05:01:58;;;;;;;;;;;;;;;3.17;72.02;99991.52;108052;1254;61618;-78
2023/03/27 05:04:25;;;;;;;;;;;;;;;3.24;72.16;99989.02;107681;1254;125313;-82
2023/03/27 05:06:54;;;;;;;;;;;;;;;3.29;72.21;99989.08;107920;1254;67532;-77
2023/03/27 05:09:21;;;;;;;;;;;;;;;3.35;72.13;99991.07;107800;1254;125144;-76
2023/03/27 05:11:49;;;;;;;;;;;;;;;3.39;72.19;99998.51;107651;1254;62127;-78
2023/03/27 05:14:16;;;;;;;;;;;;;;;3.45;72.08;100001.71;107743;1257;60453;-78
2023/03/27 05:16:43;;;;;;;;;;;;;;;3.54;72.25;100007.80;107998;1254;124750;-81
2023/03/27 05:19:10;;;;;;;;;;;;;;;3.61;72.28;100009.81;107862;1259;66754;-78
2023/03/27 05:21:40;;;;;;;;;;;;;;;3.74;72.36;100010.50;108503;1254;124868;-81
2023/03/27 05:24:08;;;;;;;;;;;;;;;3.87;72.45;100015.20;107632;1254;61773;-77
2023/03/27 05:26:38;;;;;;;;;;;;;;;4.02;72.35;100021.69;107956;1253;61093;-79
2023/03/27 05:29:05;;;;;;;;;;;;;;;4.18;72.40;100025.98;107773;1253;74587;-79
2023/03/27 05:31:32;;;;;;;;;;;;;;;4.37;72.43;100025.13;107672;1254;66763;-79
2023/03/27 05:33:59;;;;;;;;;;;;;;;4.54;72.15;100021.05;108968;1254;124482;-80
2023/03/27 05:36:28;;;;;;;;;;;;;;;4.66;72.01;100032.85;107787;1254;60206;-78
2023/03/27 05:38:56;;;;;;;;;;;;;;;4.76;71.73;100035.11;107853;1254;124462;-79
2023/03/27 05:41:23;;;;;;;;;;;;;;;4.85;71.73;100031.45;107929;1253;75225;-77
2023/03/27 05:43:51;;;;;;;;;;;;;;;4.99;71.72;100033.13;109144;1254;65582;-77
2023/03/27 05:46:18;;;;;;;;;;;;;;;5.03;71.33;100037.28;108881;1254;124599;-78
2023/03/27 05:48:46;;;;;;;;;;;;;;;5.03;71.22;100044.45;108992;1254;60407;-78
2023/03/27 05:51:13;;;;;;;;;;;;;;;5.06;71.17;100046.29;108988;1254;124309;-81
2023/03/27 05:53:40;;;;;;;;;;;;;;;5.10;71.22;100046.76;108010;1254;75979;-81
2023/03/27 05:56:07;;;;;;;;;;;;;;;5.11;70.88;100045.90;107813;1258;67116;-81
2023/03/27 05:58:34;;;;;;;;;;;;;;;5.12;70.92;100045.79;108140;1257;124552;-81
2023/03/27 06:01:02;;;;;;;;;;;;;;;5.15;70.86;100045.70;108181;1254;61388;-81
2023/03/27 06:03:29;;;;;;;;;;;;;;;5.13;70.70;100047.04;107443;1258;124893;-81
2023/03/27 06:06:01;;;;;;;;;;;;;;;5.11;70.50;100048.88;107612;1257;75202;-81
2023/03/27 06:08:28;;;;;;;;;;;;;;;5.17;70.73;100052.38;107707;1256;65778;-81
2023/03/27 06:10:56;;;;;;;;;;;;;;;5.22;70.52;100053.27;107652;1254;72713;-81
2023/03/27 06:13:23;;;;;;;;;;;;;;;5.26;70.43;100053.23;107692;1254;60540;-82
2023/03/27 06:15:52;;;;;;;;;;;;;;;5.36;70.46;100056.71;107775;1254;124420;-82
2023/03/27 06:18:20;;;;;;;;;;;;;;;5.43;70.36;100061.85;107896;1254;75374;-81
2023/03/27 06:20:47;;;;;;;;;;;;;;;5.50;70.08;100062.61;107682;1254;124241;-82
2023/03/27 06:23:14;;;;;;;;;;;;;;;5.54;69.85;100067.27;107735;1254;70926;-82
2023/03/27 06:25:42;;;;;;;;;;;;;;;5.53;69.54;100070.35;107506;1254;61926;-81
2023/03/27 06:28:09;;;;;;;;;;;;;;;5.49;69.52;100073.71;107913;1254;124746;-78
2023/03/27 06:30:37;;;;;;;;;;;;;;;5.47;69.49;100076.05;108120;1253;75676;-78
2023/03/27 06:33:04;;;;;;;;;;;;;;;5.40;69.15;100078.97;107678;1253;125476;-78
2023/03/27 06:35:32;;;;;;;;;;;;;;;5.33;69.20;100080.79;107687;1256;72778;-78
2023/03/27 06:37:59;;;;;;;;;;;;;;;5.31;69.26;100082.48;107594;1259;62153;-78
2023/03/27 06:40:26;;;;;;;;;;;;;;;5.29;69.26;100085.18;107506;1254;124812;-78
2023/03/27 06:42:54;;;;;;;;;;;;;;;5.30;69.16;100091.63;107551;1254;75197;-78
2023/03/27 06:45:22;;;;;;;;;;;;;;;5.25;69.04;100097.73;107339;1254;125263;-78
2023/03/27 06:47:56;;;;;;;;;;;;;;;5.24;69.08;100105.72;107664;1253;71218;-81
2023/03/27 06:50:24;;;;;;;;;;;;;;;5.22;68.94;100108.44;107821;1254;63047;-82
2023/03/27 06:52:51;;;;;;;;;;;;;;;5.16;68.90;100107.87;107328;1257;124172;-80
2023/03/27 06:55:19;;;;;;;;;;;;;;;5.12;68.94;100113.61;107603;1254;75974;-80
2023/03/27 06:57:52;;;;;;;;;;;;;;;5.14;68.92;100118.36;107974;1253;124658;-80
2023/03/27 07:00:23;;;;;;;;;;;;;;;5.07;68.67;100121.63;107610;1257;71156;-79
2023/03/27 07:02:56;;;;;;;;;;;;;;;5.01;68.71;100123.46;107492;1257;124854;-79
2023/03/27 07:05:24;;;;;;;;;;;;;;;5.02;68.70;100127.16;107321;1256;61868;-79
2023/03/27 07:07:51;;;;;;;;;;;;;;;5.02;68.40;100131.33;107582;1254;75500;-79
2023/03/27 07:10:18;;;;;;;;;;;;;;;5.07;68.38;100134.46;107756;1256;124710;-82
2023/03/27 07:12:46;;;;;;;;;;;;;;;5.20;68.69;100138.77;107674;1254;71371;-79
2023/03/27 07:15:13;;;;;;;;;;;;;;;5.37;68.72;100141.81;107595;1256;124839;-79
2023/03/27 07:17:42;;;;;;;;;;;;;;;5.48;68.59;100145.70;107882;1256;61792;-80
2023/03/27 07:20:11;;;;;;;;;;;;;;;5.49;68.34;100145.91;108059;1257;75487;-80
2023/03/27 07:22:43;;;;;;;;;;;;;;;5.49;68.11;100151.81;107566;1256;124699;-79
2023/03/27 07:25:13;;;;;;;;;;;;;;;5.44;67.86;100154.42;107935;1257;72547;-79
2023/03/27 07:27:41;;;;;;;;;;;;;;;5.25;67.66;100158.11;107753;1255;124240;-82
2023/03/27 07:30:10;;;;;;;;;;;;;;;5.07;67.59;100168.73;107915;1256;62077;-82
2023/03/27 07:32:39;;;;;;;;;;;;;;;4.83;67.76;100181.38;107592;1257;124348;-83
2023/03/27 07:35:08;;;;;;;;;;;;;;;4.46;68.08;100191.38;107646;1256;65807;-82
2023/03/27 07:37:38;;;;;;;;;;;;;;;3.97;68.84;100198.21;107635;1256;72847;-80
2023/03/27 07:40:05;;;;;;;;;;;;;;;3.43;71.29;100204.05;107547;1256;124906;-80
2023/03/27 07:42:33;;;;;;;;;;;;;;;3.11;72.96;100212.11;107703;1255;60228;-80
2023/03/27 07:45:01;;;;;;;;;;;;;;;2.91;73.93;100220.39;107759;1256;125101;-80
2023/03/27 07:47:28;;;;;;;;;;;;;;;2.75;73.31;100226.21;107794;1256;67410;-80
2023/03/27 07:49:55;;;;;;;;;;;;;;;2.68;73.22;100228.09;107624;1255;71840;-80
2023/03/27 07:52:23;;;;;;;;;;;;;;;2.66;73.55;100229.25;107615;1260;124845;-82
2023/03/27 07:54:55;;;;;;;;;;;;;;;2.81;74.35;100231.70;107888;1257;60842;-82
2023/03/27 07:57:22;;;;;;;;;;;;;;;3.00;74.73;100232.59;107779;1256;125436;-82
2023/03/27 07:59:51;;;;;;;;;;;;;;;3.24;74.67;100233.19;108032;1254;67390;-83
2023/03/27 08:02:18;;;;;;;;;;;;;;;3.48;74.47;100231.34;108055;1253;71430;-83
2023/03/27 08:04:45;;;;;;;;;;;;;;;3.69;73.57;100231.73;108344;1253;124695;-83
2023/03/27 08:07:12;;;;;;;;;;;;;;;3.77;73.15;100234.15;108148;1254;60724;-80
2023/03/27 08:09:40;;;;;;;;;;;;;;;3.84;72.93;100237.94;107638;1256;125241;-83
2023/03/27 08:12:07;;;;;;;;;;;;;;;4.02;72.96;100247.73;107772;1253;65857;-80
2023/03/27 08:14:35;;;;;;;;;;;;;;;4.14;72.90;100254.48;107638;1253;124819;-82
2023/03/27 08:17:08;;;;;;;;;;;;;;;4.20;72.35;100256.33;107801;1253;61305;-83
2023/03/27 08:19:36;;;;;;;;;;;;;;;4.16;71.76;100263.42;107597;1253;61692;-82
2023/03/27 08:22:05;;;;;;;;;;;;;;;4.10;71.25;100268.41;107523;1257;124499;-82
2023/03/27 08:24:32;;;;;;;;;;;;;;;4.01;71.09;100271.33;108004;1257;65512;-80
2023/03/27 08:26:59;;;;;;;;;;;;;;;3.96;70.90;100273.86;107982;1254;124576;-80
2023/03/27 08:29:26;;;;;;;;;;;;;;;3.98;71.07;100273.77;107980;1253;61186;-80
2023/03/27 08:31:53;;;;;;;;;;;;;;;3.97;70.94;100280.35;107913;1257;60430;-80
2023/03/27 08:34:20;;;;;;;;;;;;;;;3.84;70.61;100280.48;107603;1256;125322;-82
2023/03/27 08:36:47;;;;;;;;;;;;;;;3.74;71.00;100287.48;107678;1253;67040;-82
2023/03/27 08:39:14;;;;;;;;;;;;;;;3.69;70.92;100284.83;107655;1253;125198;-80
2023/03/27 08:41:47;;;;;;;;;;;;;;;3.64;71.00;100287.92;107684;1254;60492;-80
2023/03/27 08:44:15;;;;;;;;;;;;;;;3.65;70.92;100294.34;107862;1253;60838;-80
2023/03/27 08:46:44;;;;;;;;;;;;;;;3.55;70.85;100297.40;107867;1253;124108;-81
2023/03/27 08:49:20;;;;;;;;;;;;;;;3.43;71.63;100307.92;108028;1254;65680;-80
2023/03/27 08:52:16;;;;;;;;;;;;;;;3.22;71.86;100307.46;107766;1254;124605;-80
2023/03/27 08:54:44;;;;;;;;;;;;;;;3.06;71.49;100312.98;107049;1262;60401;-80
2023/03/27 08:57:15;;;;;;;;;;;;;;;3.02;71.66;100316.02;106968;1261;125621;-79
2023/03/27 08:59:42;;;;;;;;;;;;;;;2.98;71.94;100322.95;107437;1261;74617;-80
2023/03/27 09:02:28;;;;;;;;;;;;;;;3.02;71.65;100327.83;107200;1260;67110;-80
2023/03/27 09:04:59;;;;;;;;;;;;;;;3.11;71.80;100322.00;107337;1260;71573;-80
2023/03/27 09:07:38;;;;;;;;;;;;;;;3.25;71.58;100332.75;107365;1261;62354;-80
2023/03/27 09:10:12;;;;;;;;;;;;;;;3.28;70.85;100331.35;107160;1260;124977;-78
2023/03/27 09:12:48;;;;;;;;;;;;;;;3.35;70.77;100334.96;107129;1264;73858;-79
2023/03/27 09:15:34;;;;;;;;;;;;;;;3.47;70.77;100340.92;106887;1260;124580;-79
2023/03/27 09:18:04;;;;;;;;;;;;;;;3.70;70.56;100341.61;106982;1261;71475;-78
2023/03/27 09:20:36;;;;;;;;;;;;;;;3.88;70.15;100341.89;106877;1265;124650;-79
2023/03/27 09:23:04;;;;;;;;;;;;;;;3.99;69.66;100346.75;106946;1262;61645;-78
2023/03/27 09:25:33;;;;;;;;;;;;;;;4.14;69.42;100354.00;107319;1260;75547;-78
2023/03/27 09:28:02;;;;;;;;;;;;;;;4.29;69.08;100357.45;107444;1260;124159;-78
2023/03/27 09:30:30;;;;;;;;;;;;;;;4.32;68.52;100361.41;107280;1255;71434;-78
2023/03/27 09:33:18;;;;;;;;;;;;;;;4.24;68.06;100362.80;107600;1253;124462;-81
2023/03/27 09:35:45;;;;;;;;;;;;;;;4.12;67.67;100359.48;107939;1253;62790;-81
2023/03/27 09:38:20;;;;;;;;;;;;;;;4.13;67.78;100359.34;108005;1253;74156;-81
2023/03/27 09:40:49;;;;;;;;;;;;;;;4.20;67.68;100363.67;107443;1253;291009;-81
2023/03/27 09:43:17;;;;;;;;;;;;;;;4.27;67.54;100363.61;107814;1260;71034;-81
2023/03/27 09:45:46;;;;;;;;;;;;;;;4.40;67.66;100362.79;107869;1253;124623;-81
2023/03/27 09:48:22;;;;;;;;;;;;;;;4.66;67.56;100371.91;107770;1253;62104;-78
2023/03/27 09:50:49;;;;;;;;;;;;;;;4.85;66.77;100378.08;107712;1253;124771;-78
2023/03/27 09:53:20;;;;;;;;;;;;;;;4.89;66.20;100379.45;107748;1253;66671;-78
2023/03/27 09:55:49;;;;;;;;;;;;;;;4.90;65.22;100386.63;107527;1253;71416;-78
2023/03/27 09:58:29;;;;;;;;;;;;;;;4.86;64.71;100398.48;107446;1253;125267;-79
2023/03/27 10:01:07;;;;;;;;;;;;;;;4.75;63.60;100395.73;107737;1255;62192;-79
2023/03/27 10:03:39;;;;;;;;;;;;;;;4.69;64.00;100393.58;107544;1253;124091;-79
2023/03/27 10:06:08;;;;;;;;;;;;;;;4.81;63.62;100395.29;107539;1253;67183;-80
2023/03/27 10:08:44;;;;;;;;;;;;;;;4.94;63.44;100400.36;107515;1254;125179;-80
2023/03/27 10:11:15;;;;;;;;;;;;;;;5.07;62.99;100397.77;107512;1253;60173;-79
2023/03/27 10:13:43;;;;;;;;;;;;;;;5.20;62.69;100400.04;107530;1253;60667;-80
2023/03/27 10:16:10;;;;;;;;;;;;;;;5.29;62.07;100397.46;107470;1253;124532;-80
2023/03/27 10:18:41;;;;;;;;;;;;;;;5.44;62.03;100399.46;107621;1253;67023;-80
2023/03/27 10:21:09;;;;;;;;;;;;;;;5.72;61.36;100397.21;107446;1253;124237;-79
2023/03/27 10:23:39;;;;;;;;;;;;;;;5.84;60.38;100408.86;107432;1253;63074;-79
2023/03/27 10:26:07;;;;;;;;;;;;;;;5.77;59.01;100414.48;107663;1253;61945;-79
2023/03/27 10:28:34;;;;;;;;;;;;;;;5.58;58.66;100416.02;107516;1253;125181;-79
2023/03/27 10:31:04;;;;;;;;;;;;;;;5.51;58.88;100418.15;107526;1253;65366;-82
2023/03/27 10:33:35;;;;;;;;;;;;;;;5.43;59.05;100415.80;107333;1254;124308;-82
2023/03/27 10:36:03;;;;;;;;;;;;;;;5.42;58.75;100426.36;107404;1253;62008;-82
2023/03/27 10:38:34;;;;;;;;;;;;;;;5.33;58.71;100422.48;107151;1262;124709;-84
2023/03/27 10:41:05;;;;;;;;;;;;;;;5.34;58.67;100428.98;107768;1254;75913;-80
2023/03/27 10:43:34;;;;;;;;;;;;;;;5.30;58.30;100431.59;107852;1253;66846;-84
2023/03/27 10:46:05;;;;;;;;;;;;;;;5.15;57.93;100438.97;107454;1253;124808;-80
2023/03/27 10:48:38;;;;;;;;;;;;;;;5.07;57.91;100433.94;107447;1253;62162;-81
2023/03/27 10:51:06;;;;;;;;;;;;;;;5.07;57.94;100436.73;107623;1253;124258;-81
2023/03/27 10:53:36;;;;;;;;;;;;;;;5.29;58.34;100441.48;107556;1253;75206;-78
2023/03/27 10:56:14;;;;;;;;;;;;;;;5.59;58.15;100444.60;107751;1254;66976;-82
2023/03/27 10:58:46;;;;;;;;;;;;;;;5.85;58.06;100448.76;107709;1256;124345;-82
2023/03/27 11:01:17;;;;;;;;;;;;;;;5.95;57.12;100454.52;107545;1256;62155;-82
2023/03/27 11:04:02;;;;;;;;;;;;;;;5.87;56.80;100460.66;107474;1256;124637;-82
2023/03/27 11:06:30;;;;;;;;;;;;;;;5.79;56.85;100466.61;107728;1259;74228;-82
2023/03/27 11:09:04;;;;;;;;;;;;;;;5.77;56.71;100476.81;107208;1256;124987;-82
2023/03/27 11:12:06;;;;;;;;;;;;;;;5.83;56.74;100477.23;107771;1256;72007;-87
2023/03/27 11:15:05;;;;;;;;;;;;;;;5.81;56.07;100482.03;106974;1261;124360;-92
2023/03/27 11:17:51;;;;;;;;;;;;;;;5.40;55.57;100494.83;107429;1259;62206;-81
2023/03/27 11:20:22;;;;;;;;;;;;;;;5.11;55.99;100488.19;108456;1261;76274;-80
2023/03/27 11:22:51;;;;;;;;;;;;;;;5.04;55.97;100493.64;107248;1265;124435;-80
2023/03/27 11:25:25;;;;;;;;;;;;;;;5.09;56.51;100489.34;107276;1261;73256;-80
2023/03/27 11:27:57;;;;;;;;;;;;;;;5.27;56.75;100490.80;107301;1260;124832;-80
2023/03/27 11:30:27;;;;;;;;;;;;;;;5.43;56.62;100502.93;107598;1260;62021;-80
2023/03/27 11:33:09;;;;;;;;;;;;;;;5.37;55.62;100510.54;107555;1261;124589;-80
2023/03/27 11:35:47;;;;;;;;;;;;;;;5.24;55.71;100513.84;107798;1261;65751;-80
2023/03/27 11:38:18;;;;;;;;;;;;;;;5.33;56.03;100514.90;107505;1259;71709;-80
2023/03/27 11:40:46;;;;;;;;;;;;;;;5.39;56.27;100521.73;107147;1259;124126;-80
2023/03/27 11:43:14;;;;;;;;;;;;;;;5.32;55.56;100542.52;107295;1258;61915;-80
2023/03/27 11:45:59;;;;;;;;;;;;;;;5.16;55.90;100530.36;107305;1254;124592;-80
2023/03/27 11:48:36;;;;;;;;;;;;;;;5.19;55.41;100540.20;107714;1257;65771;-82
2023/03/27 11:51:19;;;;;;;;;;;;;;;5.09;55.10;100539.08;107669;1260;124870;-82
2023/03/27 11:53:56;;;;;;;;;;;;;;;5.04;55.10;100539.70;107893;1256;62061;-81
2023/03/27 11:56:42;;;;;;;;;;;;;;;5.05;54.97;100537.68;107660;1256;62059;-81
2023/03/27 11:59:13;;;;;;;;;;;;;;;5.05;55.21;100545.70;108277;1256;75208;-80
2023/03/27 12:01:44;;;;;;;;;;;;;;;5.09;55.16;100545.16;108295;1255;65465;-80
2023/03/27 12:04:11;;;;;;;;;;;;;;;5.29;54.74;100549.54;108036;1255;124302;-81
2023/03/27 12:06:41;;;;;;;;;;;;;;;5.43;53.52;100549.95;107942;1256;60661;-80
2023/03/27 12:09:27;;;;;;;;;;;;;;;5.43;53.32;100563.85;107987;1259;125037;-80
2023/03/27 12:11:58;;;;;;;;;;;;;;;5.30;52.40;100562.27;107907;1255;75520;-80
2023/03/27 12:14:52;;;;;;;;;;;;;;;5.18;52.35;100567.13;107923;1256;67653;-79
2023/03/27 12:17:27;;;;;;;;;;;;;;;5.09;52.35;100574.55;107713;1256;72831;-80
2023/03/27 12:19:57;;;;;;;;;;;;;;;4.97;52.05;100579.62;108500;1256;60100;-80
2023/03/27 12:22:30;;;;;;;;;;;;;;;4.78;51.87;100581.71;108869;1256;124097;-79
2023/03/27 12:25:16;;;;;;;;;;;;;;;4.84;52.55;100579.35;108020;1261;73777;-81
2023/03/27 12:27:55;;;;;;;;;;;;;;;4.97;52.47;100578.73;107839;1256;124614;-81
2023/03/27 12:30:31;;;;;;;;;;;;;;;5.06;52.37;100581.73;108070;1255;72557;-82
2023/03/27 12:33:07;;;;;;;;;;;;;;;5.02;51.99;100586.59;107832;1260;124774;-81
2023/03/27 12:35:44;;;;;;;;;;;;;;;4.96;51.66;100592.79;107719;1255;60761;-81
2023/03/27 12:38:34;;;;;;;;;;;;;;;4.88;51.41;100586.50;107761;1256;75488;-81
2023/03/27 12:41:04;;;;;;;;;;;;;;;4.87;50.98;100591.14;107674;1260;124724;-82
2023/03/27 12:43:32;;;;;;;;;;;;;;;4.82;50.93;100603.29;107873;1257;70825;-81
2023/03/27 12:46:08;;;;;;;;;;;;;;;4.66;50.62;100610.00;107665;1256;124454;-80
2023/03/27 12:48:54;;;;;;;;;;;;;;;4.54;50.71;100608.90;107940;1254;60354;-81
2023/03/27 12:51:41;;;;;;;;;;;;;;;4.52;50.74;100611.98;108184;1255;124639;-80
2023/03/27 12:54:11;;;;;;;;;;;;;;;4.39;50.39;100622.64;108294;1256;65911;-80
2023/03/27 12:56:38;;;;;;;;;;;;;;;4.32;50.27;100625.79;108066;1255;71376;-79
2023/03/27 12:59:19;;;;;;;;;;;;;;;4.16;50.32;100632.30;108213;1254;124528;-79